Nearby METAR Reports

 

EGNR - Hawarden (aut), United Kingdom
Distance from station: ESE 33mi, 53km
Updated: 17/07/2018 19:50
Mostly cloudy
Mostly cloudy
 Wind from NNW
Wind: NNW 5 mph , 7 km/h
Temperature: 18°C
Dew Point: 10°C
Humidity: 60%
Barometer: 1016 hPa
Clouds: Mostly cloudy
Visibility: 6 miles , 10 km
Cloud details: Mostly cloudy 1494 m
2018/07/17 18:50 EGNR 171850Z 33004KT 9999 BKN049 18/10 Q1016
EGOV - Valley Raf, United Kingdom
Distance from station: W 33mi, 53km
Updated: 17/07/2018 19:50
Mostly cloudy
Mostly cloudy
 Wind from SSW
Wind: SSW 12 mph , 19 km/h
Temperature: 16°C
Dew Point: 13°C
Humidity: 83%
Barometer: 1015 hPa
Clouds: Mostly cloudy
Visibility: 6 miles , 10 km
Cloud details: Few Clouds 914 m
Mostly cloudy 2134 m
2018/07/17 18:50 EGOV 171850Z 20010KT 9999 FEW030 BKN070 16/13 Q1015 BLU
 
EGGP - Liverpool Airpor, United Kingdom
Distance from station: E 37mi, 59km
Updated: 17/07/2018 19:50
Clear
Clear
 Wind from WNW
Wind: WNW 12 mph , 19 km/h
Temperature: 17°C
Dew Point: 8°C
Humidity: 56%
Barometer: 1016 hPa
Summary: Clear
Visibility: greater than 7 miles , 10 km
2018/07/17 18:50 EGGP 171850Z 30010KT CAVOK 17/08 Q1016
EGNH - Blackpool Airpor, United Kingdom
Distance from station: NE 44mi, 72km
Updated: 17/07/2018 19:20
Few Clouds
Few Clouds
 Wind from W
Wind: W 10 mph , 17 km/h
Temperature: 17°C
Dew Point: 11°C
Humidity: 68%
Barometer: 1015 hPa
Clouds: Few Clouds
Visibility: 6 miles , 10 km
Cloud details: Few Clouds 732 m
2018/07/17 18:20 EGNH 171820Z 28009KT 9999 FEW024 17/11 Q1015
 
EGNO - Wharton, United Kingdom
Distance from station: NE 47mi, 76km
Updated: 17/07/2018 19:20
Few Clouds
Few Clouds
 Wind from WNW
Wind: WNW 9 mph , 15 km/h
Temperature: 17°C
Dew Point: 10°C
Humidity: 64%
Barometer: 1015 hPa
Clouds: Few Clouds
Visibility: 6 miles , 10 km
Cloud details: Few Clouds 1006 m
2018/07/17 18:20 EGNO 171820Z 30008KT 270V330 9999 FEW033 17/10 Q1015
EGOS - Shawbury Raf, United Kingdom
Distance from station: SE 56mi, 89km
Updated: 17/07/2018 19:50
Clear
Clear
 Wind from W
Wind: W 8 mph , 13 km/h
Temperature: 19°C
Dew Point: 6°C
Humidity: 43%
Barometer: 1015 hPa
Summary: Clear
Visibility: greater than 7 miles , 10 km
2018/07/17 18:50 EGOS 171850Z 28007KT CAVOK 19/06 Q1015 BLU
 
EGCC - Manchester Intl, United Kingdom
Distance from station: E 61mi, 98km
Updated: 17/07/2018 19:50
Clear
Clear
 Wind from WNW
Wind: WNW 8 mph , 13 km/h
Temperature: 18°C
Dew Point: 7°C
Humidity: 49%
Barometer: 1016 hPa
Clouds: Clear
Visibility: 6 miles , 10 km
2018/07/17 18:50 EGCC 171850Z AUTO 29007KT 9999 NCD 18/07 Q1016 NOSIG
EGNS - Isle Of Man/Rona, United Kingdom
Distance from station: NW 66mi, 107km
Updated: 17/07/2018 19:50
Clear
Clear
 Wind from SW
Wind: SW 7 mph , 11 km/h
Temperature: 15°C
Dew Point: 11°C
Humidity: 77%
Barometer: 1015 hPa
Summary: Clear
Visibility: greater than 7 miles , 10 km
2018/07/17 18:50 EGNS 171850Z 22006KT 180V260 CAVOK 15/11 Q1015 NOSIG
 
EGNM - Leeds And Bradfo, United Kingdom
Distance from station: ENE 95mi, 153km
Updated: 17/07/2018 19:50
Few Clouds
Few Clouds
 Wind from W
Wind: W 13 mph , 20 km/h
Temperature: 17°C
Dew Point: 7°C
Humidity: 52%
Barometer: 1015 hPa
Clouds: Few Clouds
Visibility: 6 miles , 10 km
Cloud details: Few Clouds 914 m
2018/07/17 18:50 EGNM 171850Z 26011KT 9999 FEW030 17/07 Q1015
EGBB - Birmingham Airpo, United Kingdom
Distance from station: ESE 100mi, 161km
Updated: 17/07/2018 19:50
Few Clouds
Few Clouds
 Wind from W
Wind: W 8 mph , 13 km/h
Temperature: 21°C
Dew Point: 8°C
Humidity: 43%
Barometer: 1015 hPa
Clouds: Few Clouds
Visibility: 6 miles , 10 km
Cloud details: Few Clouds 1463 m
2018/07/17 18:50 EGBB 171850Z 26007KT 230V290 9999 FEW048CB 21/08 Q1015